Time;durP1;ratioP1;P1;durP2;ratioP2;P2;SDS_P1;SDS_P2;PMS_P1;PMS_P2;Temp;Humidity;BMP_temperature;BMP_pressure;BME280_temperature;BME280_humidity;BME280_pressure;Samples;Min_cycle;Max_cycle;Signal;HPM_P1;HPM_P2
2023/01/29 00:02:09;;;;;;;30.90;8.93;;;28.20;72.70;;;;;;5078921;28;20024;-56
2023/01/29 00:04:35;;;;;;;31.70;9.07;;;28.20;72.80;;;;;;5079004;28;20027;-56
2023/01/29 00:07:02;;;;;;;29.25;8.50;;;28.20;72.90;;;;;;5065688;28;20032;-56
2023/01/29 00:09:30;;;;;;;27.15;8.15;;;28.20;73.00;;;;;;5070758;28;20021;-56
2023/01/29 00:11:56;;;;;;;24.17;8.10;;;28.10;73.10;;;;;;5071235;28;20025;-54
2023/01/29 00:14:23;;;;;;;24.45;8.95;;;28.10;73.00;;;;;;5064999;28;20434;-57
2023/01/29 00:16:49;;;;;;;24.92;8.55;;;28.10;73.20;;;;;;5065202;28;20028;-53
2023/01/29 00:19:16;;;;;;;22.98;8.77;;;28.20;73.40;;;;;;5065074;28;20033;-61
2023/01/29 00:21:42;;;;;;;25.92;8.05;;;28.10;73.40;;;;;;5068312;28;20017;-55
2023/01/29 00:24:09;;;;;;;19.17;8.85;;;28.10;73.30;;;;;;5079669;28;20017;-57
2023/01/29 00:26:41;;;;;;;21.42;8.27;;;28.10;73.20;;;;;;5067400;28;20297;-56
2023/01/29 00:29:11;;;;;;;25.60;8.73;;;28.10;73.10;;;;;;5076265;28;20025;-58
2023/01/29 00:31:37;;;;;;;22.10;8.23;;;28.10;73.20;;;;;;5072995;28;20029;-53
2023/01/29 00:34:04;;;;;;;21.38;7.47;;;28.10;73.10;;;;;;5067336;28;20033;-54
2023/01/29 00:36:30;;;;;;;16.10;7.75;;;28.10;73.00;;;;;;5066959;28;20029;-59
2023/01/29 00:39:09;;;;;;;19.77;8.15;;;28.00;73.00;;;;;;5076702;28;20036;-55
2023/01/29 00:47:29;;;;;;;23.38;7.65;;;28.00;73.00;;;;;;5074125;28;20065;-55
2023/01/29 00:49:53;;;;;;;27.10;8.07;;;27.70;73.90;;;;;;5077836;28;20062;-56
2023/01/29 00:52:23;;;;;;;23.38;8.00;;;27.60;74.10;;;;;;5083017;28;20024;-55
2023/01/29 00:54:53;;;;;;;20.02;7.82;;;27.70;74.10;;;;;;5075701;28;20244;-54
2023/01/29 00:57:21;;;;;;;19.52;7.47;;;27.70;74.00;;;;;;5073848;28;20292;-55
2023/01/29 00:59:47;;;;;;;36.25;9.50;;;27.70;74.00;;;;;;5083560;28;20036;-56
2023/01/29 01:05:04;;;;;;;23.20;7.85;;;27.70;73.70;;;;;;5079067;28;20347;-54
2023/01/29 01:07:31;;;;;;;;;;;27.70;73.50;;;;;;5083056;28;20061;-63
2023/01/29 01:12:42;;;;;;;22.58;6.97;;;27.70;73.50;;;;;;5073570;28;20092;-56
2023/01/29 01:15:10;;;;;;;19.10;7.38;;;27.70;73.40;;;;;;5076454;28;20028;-55
2023/01/29 01:17:37;;;;;;;19.70;6.75;;;27.70;73.30;;;;;;5082200;28;20020;-52
2023/01/29 01:20:04;;;;;;;19.67;6.53;;;27.70;73.20;;;;;;5081372;28;20029;-53
2023/01/29 01:22:31;;;;;;;14.75;6.60;;;27.70;73.30;;;;;;5080261;28;20032;-52
2023/01/29 01:24:57;;;;;;;20.65;6.13;;;27.70;73.20;;;;;;5071910;28;20096;-56
2023/01/29 01:27:24;;;;;;;18.95;6.55;;;27.70;73.30;;;;;;5074237;28;20016;-53
2023/01/29 01:29:51;;;;;;;17.17;6.47;;;27.70;73.00;;;;;;5079107;28;20028;-57
2023/01/29 01:32:17;;;;;;;17.50;6.93;;;27.70;73.00;;;;;;5076424;28;20029;-59
2023/01/29 01:34:44;;;;;;;23.85;7.57;;;27.70;73.10;;;;;;5067755;28;20048;-63
2023/01/29 01:37:11;;;;;;;28.02;7.30;;;27.70;73.20;;;;;;5078482;28;20212;-64
2023/01/29 01:39:37;;;;;;;49.28;8.82;;;27.70;73.10;;;;;;5080179;28;20088;-61
2023/01/29 01:42:09;;;;;;;22.20;6.57;;;27.50;72.90;;;;;;5076300;28;20032;-60
2023/01/29 01:44:57;;;;;;;17.75;6.30;;;27.30;73.50;;;;;;5083627;28;20115;-57
2023/01/29 01:47:40;;;;;;;17.60;6.22;;;27.10;73.70;;;;;;5082849;28;20024;-58
2023/01/29 01:50:13;;;;;;;19.33;6.50;;;26.90;74.10;;;;;;5071545;28;20024;-57
2023/01/29 01:52:44;;;;;;;14.38;6.45;;;26.80;74.60;;;;;;5071920;28;20312;-56
2023/01/29 01:55:15;;;;;;;13.17;6.27;;;26.80;74.60;;;;;;5077966;28;20347;-56
2023/01/29 01:57:44;;;;;;;11.68;5.85;;;26.90;74.50;;;;;;5076911;28;20051;-55
2023/01/29 02:00:15;;;;;;;15.57;5.97;;;27.00;74.50;;;;;;5067755;28;20324;-57
2023/01/29 02:11:31;;;;;;;19.33;6.38;;;27.20;73.80;;;;;;5062327;28;20332;-55
2023/01/29 02:13:58;;;;;;;20.17;6.50;;;27.30;73.70;;;;;;5062768;28;20041;-57
2023/01/29 02:16:25;;;;;;;20.20;6.28;;;27.30;73.50;;;;;;5062615;28;20032;-56
2023/01/29 02:18:53;;;;;;;19.27;6.07;;;27.30;73.50;;;;;;5062702;28;20325;-60
2023/01/29 02:21:46;;;;;;;14.98;5.78;;;27.30;73.50;;;;;;5062679;28;20040;-59
2023/01/29 02:24:35;;;;;;;10.57;5.72;;;27.10;72.70;;;;;;5070549;28;20400;-60
2023/01/29 02:27:11;;;;;;;14.02;6.05;;;26.90;73.20;;;;;;5075366;28;20024;-61
2023/01/29 02:29:44;;;;;;;14.05;5.43;;;26.70;73.40;;;;;;5077400;28;20025;-60
2023/01/29 02:32:16;;;;;;;13.10;5.97;;;26.60;73.90;;;;;;5084306;28;20189;-54
2023/01/29 02:37:52;;;;;;;11.70;5.60;;;26.60;74.10;;;;;;5084861;28;20026;-57
2023/01/29 02:40:34;;;;;;;9.82;5.65;;;26.70;74.10;;;;;;5085417;28;20130;-58
2023/01/29 02:43:21;;;;;;;;;;;26.80;73.80;;;;;;5085082;28;20056;-58
2023/01/29 02:46:00;;;;;;;11.45;5.85;;;26.90;73.80;;;;;;5085303;28;19908;-59
2023/01/29 02:48:36;;;;;;;9.57;5.65;;;26.90;73.50;;;;;;5085716;28;20100;-59
2023/01/29 02:51:09;;;;;;;7.85;5.93;;;26.90;73.30;;;;;;5085066;28;20034;-57
2023/01/29 02:53:57;;;;;;;9.60;6.03;;;26.90;73.10;;;;;;5085158;28;20073;-56
2023/01/29 02:56:52;;;;;;;10.38;6.30;;;27.00;73.10;;;;;;5085117;28;20036;-57
2023/01/29 02:59:32;;;;;;;11.32;7.60;;;27.00;72.70;;;;;;5085095;28;20031;-59
2023/01/29 03:02:15;;;;;;;9.80;6.95;;;27.00;72.70;;;;;;5085066;28;20066;-57
2023/01/29 03:04:49;;;;;;;10.07;8.02;;;27.10;72.60;;;;;;5086017;28;20089;-58
2023/01/29 03:07:40;;;;;;;13.38;7.15;;;27.00;72.50;;;;;;5087678;28;20027;-61
2023/01/29 03:10:18;;;;;;;17.38;7.35;;;27.00;72.40;;;;;;5086750;28;20025;-58
2023/01/29 03:12:51;;;;;;;15.95;6.85;;;27.00;72.20;;;;;;5087273;28;20047;-58
2023/01/29 03:15:31;;;;;;;11.23;6.22;;;27.00;72.00;;;;;;5086693;28;20113;-59
2023/01/29 03:18:14;;;;;;;11.68;6.43;;;27.00;71.90;;;;;;5087125;28;20037;-57
2023/01/29 03:20:52;;;;;;;11.63;6.28;;;27.00;71.60;;;;;;5086914;28;20032;-57
2023/01/29 03:32:05;;;;;;;10.38;6.13;;;27.00;71.40;;;;;;5086739;28;20031;-58
2023/01/29 03:34:44;;;;;;;10.15;5.95;;;27.00;71.40;;;;;;5086439;28;20082;-58
2023/01/29 03:37:22;;;;;;;13.18;5.93;;;27.00;71.10;;;;;;5086483;28;20217;-57
2023/01/29 03:39:49;;;;;;;12.30;6.28;;;27.00;70.50;;;;;;5086787;28;20370;-59
2023/01/29 03:42:45;;;;;;;13.02;6.03;;;27.00;70.20;;;;;;5085867;28;20177;-58
2023/01/29 03:45:41;;;;;;;12.88;5.78;;;27.00;69.70;;;;;;5086436;28;20032;-59
2023/01/29 03:48:14;;;;;;;12.05;5.15;;;27.00;69.40;;;;;;5059572;28;20035;-59
2023/01/29 03:51:10;;;;;;;10.90;5.97;;;27.00;69.40;;;;;;5086536;28;20044;-59
2023/01/29 03:53:47;;;;;;;14.48;6.32;;;26.90;69.20;;;;;;5085975;28;20269;-57
2023/01/29 03:56:41;;;;;;;14.55;6.28;;;27.00;69.40;;;;;;5086159;28;20085;-57
2023/01/29 03:59:42;;;;;;;10.88;6.70;;;26.90;69.40;;;;;;5086137;28;20089;-59
2023/01/29 04:02:26;;;;;;;17.25;6.20;;;26.90;69.50;;;;;;5083690;28;20044;-59
2023/01/29 04:04:58;;;;;;;13.93;5.97;;;26.90;69.40;;;;;;5085739;28;20301;-60
2023/01/29 04:07:25;;;;;;;10.95;5.65;;;26.90;69.30;;;;;;5086279;28;20235;-61
2023/01/29 04:10:14;;;;;;;10.52;5.10;;;26.90;69.20;;;;;;5085678;28;20044;-56
2023/01/29 04:12:47;;;;;;;9.80;5.32;;;26.90;69.10;;;;;;5086098;28;20038;-58
2023/01/29 04:15:17;;;;;;;;;;;26.90;69.10;;;;;;5086221;28;20244;-58
2023/01/29 04:17:51;;;;;;;13.48;5.28;;;26.90;69.00;;;;;;5086146;28;19905;-59
2023/01/29 04:20:19;;;;;;;14.98;5.55;;;26.90;69.50;;;;;;5085628;28;20032;-58
2023/01/29 04:22:48;;;;;;;10.38;5.20;;;26.90;69.10;;;;;;5085848;28;20032;-58
2023/01/29 04:25:25;;;;;;;10.20;5.63;;;26.90;69.20;;;;;;5085648;28;20024;-59
2023/01/29 04:28:18;;;;;;;10.80;5.10;;;26.90;69.10;;;;;;5085632;28;20028;-58
2023/01/29 04:31:01;;;;;;;8.82;5.38;;;26.90;69.00;;;;;;5085299;28;20047;-58
2023/01/29 04:33:41;;;;;;;8.80;5.43;;;26.90;68.90;;;;;;5085433;28;20076;-59
2023/01/29 04:36:24;;;;;;;11.50;5.82;;;26.90;68.90;;;;;;5085000;28;20366;-57
2023/01/29 04:39:12;;;;;;;9.98;5.63;;;26.80;68.80;;;;;;5085145;28;20063;-57
2023/01/29 04:42:07;;;;;;;8.60;5.28;;;26.80;68.70;;;;;;5084525;28;20055;-55
2023/01/29 04:44:43;;;;;;;7.95;4.60;;;26.80;68.50;;;;;;5084623;28;20067;-58
2023/01/29 04:47:28;;;;;;;10.07;4.93;;;26.80;68.40;;;;;;5084806;28;20024;-58
2023/01/29 04:50:16;;;;;;;9.02;5.50;;;26.80;68.30;;;;;;5084592;28;20036;-55
2023/01/29 04:52:48;;;;;;;10.23;5.10;;;26.80;68.10;;;;;;5085201;28;20028;-58
2023/01/29 04:55:34;;;;;;;14.57;5.35;;;26.80;68.00;;;;;;5083879;28;20040;-56
2023/01/29 04:58:29;;;;;;;8.30;4.50;;;26.80;67.90;;;;;;5084939;28;20024;-56
2023/01/29 05:00:59;;;;;;;7.88;4.63;;;26.80;67.90;;;;;;5084534;28;20036;-56
2023/01/29 05:03:28;;;;;;;8.25;4.82;;;26.80;67.80;;;;;;5084260;28;20314;-56
2023/01/29 05:05:57;;;;;;;7.63;4.43;;;26.80;67.80;;;;;;5084239;28;20028;-57
2023/01/29 05:08:25;;;;;;;10.55;4.68;;;26.80;67.80;;;;;;5084817;28;20051;-55
2023/01/29 05:10:53;;;;;;;7.07;4.55;;;26.80;67.60;;;;;;5084543;28;20335;-57
2023/01/29 05:13:22;;;;;;;5.88;4.63;;;26.80;67.50;;;;;;5085061;28;20028;-57
2023/01/29 05:16:04;;;;;;;10.63;4.38;;;26.80;67.40;;;;;;5084584;28;20099;-58
2023/01/29 05:18:31;;;;;;;6.72;4.22;;;26.80;67.20;;;;;;5084501;28;20040;-55
2023/01/29 05:21:03;;;;;;;6.72;4.55;;;26.80;67.10;;;;;;5084915;28;20020;-56
2023/01/29 05:23:29;;;;;;;8.35;4.68;;;26.80;67.10;;;;;;5084656;28;20370;-56
2023/01/29 05:25:56;;;;;;;7.30;4.20;;;26.80;67.00;;;;;;5084436;28;20265;-57
2023/01/29 05:28:23;;;;;;;5.85;4.45;;;26.70;66.80;;;;;;5085018;28;20040;-56
2023/01/29 05:30:52;;;;;;;6.50;4.38;;;26.70;66.70;;;;;;5084805;28;20047;-57
2023/01/29 05:33:24;;;;;;;10.75;4.70;;;26.70;66.60;;;;;;5085199;28;20169;-57
2023/01/29 05:35:51;;;;;;;8.68;4.25;;;26.70;66.40;;;;;;5084538;28;20068;-57
2023/01/29 05:38:19;;;;;;;6.82;4.30;;;26.70;66.20;;;;;;5084372;28;20031;-56
2023/01/29 05:40:46;;;;;;;5.55;4.53;;;26.70;66.10;;;;;;5084620;28;20032;-57
2023/01/29 05:43:22;;;;;;;5.18;3.85;;;26.70;65.90;;;;;;5084331;28;20119;-56
2023/01/29 05:45:59;;;;;;;5.95;4.00;;;26.70;65.90;;;;;;5083926;28;20243;-57
2023/01/29 05:48:27;;;;;;;6.90;4.03;;;26.70;65.70;;;;;;5083381;28;20162;-58
2023/01/29 05:51:04;;;;;;;17.35;4.88;;;26.70;65.70;;;;;;5083274;28;20200;-58
2023/01/29 05:53:32;;;;;;;10.27;4.28;;;26.70;65.80;;;;;;5083887;28;20086;-58
2023/01/29 05:56:03;;;;;;;5.35;4.05;;;26.60;65.60;;;;;;5083781;28;20029;-59
2023/01/29 05:58:33;;;;;;;8.68;4.35;;;26.60;65.40;;;;;;5083703;28;20036;-57
2023/01/29 06:01:12;;;;;;;6.53;3.97;;;26.60;65.30;;;;;;5083673;28;20017;-60
2023/01/29 06:03:38;;;;;;;6.63;3.83;;;26.60;65.30;;;;;;5083633;28;20056;-58
2023/01/29 06:06:05;;;;;;;6.70;3.75;;;26.60;65.00;;;;;;5085386;28;20070;-61
2023/01/29 06:08:32;;;;;;;6.25;3.63;;;26.60;64.90;;;;;;5087929;28;20032;-59
2023/01/29 06:10:58;;;;;;;5.05;4.03;;;26.60;64.70;;;;;;5087689;28;20088;-58
2023/01/29 06:13:25;;;;;;;5.18;3.85;;;26.70;64.70;;;;;;5087348;28;20025;-62
2023/01/29 06:15:51;;;;;;;4.82;3.70;;;26.60;64.50;;;;;;5087715;28;20032;-63
2023/01/29 06:18:18;;;;;;;6.20;3.85;;;26.60;64.40;;;;;;5087600;28;20028;-58
2023/01/29 06:20:44;;;;;;;5.95;3.70;;;26.60;64.20;;;;;;5087848;28;20083;-61
2023/01/29 06:23:11;;;;;;;5.60;3.70;;;26.60;64.20;;;;;;5087321;28;20062;-60
2023/01/29 06:25:37;;;;;;;6.47;3.92;;;26.60;64.10;;;;;;5087776;28;20024;-59
2023/01/29 06:28:04;;;;;;;7.68;4.13;;;26.60;64.00;;;;;;5087756;28;20315;-56
2023/01/29 06:30:31;;;;;;;5.82;3.80;;;26.60;63.90;;;;;;5087617;28;20067;-56
2023/01/29 06:33:00;;;;;;;5.88;3.70;;;26.60;63.80;;;;;;5087543;28;20043;-60
2023/01/29 06:35:27;;;;;;;4.88;3.70;;;26.60;64.30;;;;;;5087139;28;20024;-58
2023/01/29 06:37:55;;;;;;;5.70;3.70;;;26.60;63.70;;;;;;5087771;28;20111;-60
2023/01/29 06:40:21;;;;;;;6.80;4.00;;;26.50;63.70;;;;;;5087470;28;20040;-61
2023/01/29 06:42:48;;;;;;;5.35;3.83;;;26.50;63.80;;;;;;5086982;28;20032;-61
2023/01/29 06:45:14;;;;;;;5.72;3.80;;;26.50;63.90;;;;;;5086601;28;20283;-61
2023/01/29 06:47:41;;;;;;;5.15;3.45;;;26.50;63.90;;;;;;5087370;28;20039;-62
2023/01/29 06:50:08;;;;;;;6.85;3.45;;;26.50;63.90;;;;;;5086835;28;20032;-58
2023/01/29 06:52:35;;;;;;;7.13;4.18;;;26.50;64.00;;;;;;5087158;28;20069;-63
2023/01/29 06:55:01;;;;;;;4.95;3.90;;;26.50;63.90;;;;;;5087043;28;20075;-59
2023/01/29 06:57:31;;;;;;;6.50;3.80;;;26.50;63.90;;;;;;5087184;28;20036;-63
2023/01/29 06:59:58;;;;;;;6.72;3.70;;;26.40;63.80;;;;;;5086924;28;20316;-58
2023/01/29 07:02:24;;;;;;;4.93;3.53;;;26.40;63.90;;;;;;5087039;28;20032;-63
2023/01/29 07:04:52;;;;;;;6.45;3.70;;;26.40;63.70;;;;;;5086686;28;20092;-61
2023/01/29 07:07:19;;;;;;;5.45;3.92;;;26.40;63.60;;;;;;5085938;28;20016;-59
2023/01/29 07:09:45;;;;;;;7.30;3.50;;;26.40;63.40;;;;;;5086622;28;20059;-58
2023/01/29 07:12:12;;;;;;;7.55;3.90;;;26.40;63.40;;;;;;5086020;28;20079;-59
2023/01/29 07:14:38;;;;;;;7.30;3.97;;;26.40;63.40;;;;;;5086501;28;20048;-64
2023/01/29 07:17:05;;;;;;;5.97;3.30;;;26.40;63.30;;;;;;5085754;28;20239;-62
2023/01/29 07:19:32;;;;;;;5.55;3.58;;;26.40;63.40;;;;;;5086444;28;20028;-60
2023/01/29 07:22:01;;;;;;;6.70;3.50;;;26.30;63.20;;;;;;5086729;28;20028;-61
2023/01/29 07:24:27;;;;;;;5.35;3.60;;;26.30;63.20;;;;;;5086419;28;20359;-58
2023/01/29 07:26:54;;;;;;;6.07;3.70;;;26.30;63.20;;;;;;5086420;28;20059;-56
2023/01/29 07:29:20;;;;;;;5.55;3.95;;;26.30;63.10;;;;;;5086349;28;20087;-57
2023/01/29 07:31:47;;;;;;;7.45;4.03;;;26.30;63.20;;;;;;5086265;28;20028;-57
2023/01/29 07:34:13;;;;;;;5.80;3.65;;;26.30;63.30;;;;;;5086310;28;20051;-62
2023/01/29 07:36:40;;;;;;;9.18;3.63;;;26.30;63.30;;;;;;5086472;28;20263;-60
2023/01/29 07:39:07;;;;;;;6.50;3.90;;;26.30;63.30;;;;;;5086316;28;20052;-60
2023/01/29 07:41:33;;;;;;;8.95;3.70;;;26.30;63.30;;;;;;5086051;28;20304;-65
2023/01/29 07:44:00;;;;;;;8.07;3.85;;;26.30;63.20;;;;;;5085911;28;20283;-60
2023/01/29 07:46:26;;;;;;;7.15;3.90;;;26.30;63.30;;;;;;5086120;28;20013;-58
2023/01/29 07:48:53;;;;;;;6.18;3.65;;;26.20;63.20;;;;;;5086105;28;20051;-62
2023/01/29 07:51:20;;;;;;;7.63;3.80;;;26.30;63.30;;;;;;5085785;28;20252;-57
2023/01/29 07:53:46;;;;;;;6.18;3.75;;;26.20;63.00;;;;;;5085780;28;20035;-60
2023/01/29 07:56:13;;;;;;;6.82;4.05;;;26.20;63.20;;;;;;5085738;28;20036;-57
2023/01/29 07:58:39;;;;;;;6.53;3.63;;;26.20;63.10;;;;;;5086005;28;20155;-59
2023/01/29 08:01:07;;;;;;;5.70;3.58;;;26.20;63.10;;;;;;5085936;28;20197;-59
2023/01/29 08:03:33;;;;;;;5.93;4.00;;;26.20;63.40;;;;;;5085698;28;20103;-64
2023/01/29 08:06:00;;;;;;;7.50;4.32;;;26.20;63.60;;;;;;5085759;28;20016;-63
2023/01/29 08:08:26;;;;;;;8.35;4.65;;;26.20;63.70;;;;;;5085649;28;20059;-58
2023/01/29 08:10:53;;;;;;;8.07;4.55;;;26.20;63.90;;;;;;5079930;28;20009;-57
2023/01/29 08:13:19;;;;;;;7.43;4.13;;;26.20;63.90;;;;;;5066261;28;20025;-59
2023/01/29 08:15:46;;;;;;;7.30;3.95;;;26.20;63.90;;;;;;5065399;28;20075;-57
2023/01/29 08:18:13;;;;;;;6.65;3.80;;;26.20;63.80;;;;;;5066374;28;20058;-61
2023/01/29 08:20:40;;;;;;;5.90;3.92;;;26.20;63.60;;;;;;5065417;28;20231;-58
2023/01/29 08:23:13;;;;;;;6.07;3.67;;;26.10;63.50;;;;;;5065634;28;20031;-61
2023/01/29 08:25:40;;;;;;;5.85;3.72;;;26.10;63.40;;;;;;5065362;28;20025;-58
2023/01/29 08:28:07;;;;;;;4.35;3.50;;;26.10;63.30;;;;;;5065557;28;20032;-58
2023/01/29 08:30:34;;;;;;;5.65;3.42;;;26.10;63.20;;;;;;5065083;28;20095;-59
2023/01/29 08:33:02;;;;;;;7.22;3.80;;;26.10;63.10;;;;;;5065350;28;20032;-60
2023/01/29 08:35:30;;;;;;;6.90;4.10;;;26.10;63.00;;;;;;5065252;28;20048;-60
2023/01/29 08:37:59;;;;;;;8.82;4.03;;;26.10;63.00;;;;;;5065477;28;20025;-59
2023/01/29 08:40:27;;;;;;;9.13;4.30;;;26.10;63.00;;;;;;5064905;28;20352;-59
2023/01/29 08:43:07;;;;;;;10.20;4.00;;;26.10;63.20;;;;;;5064746;28;20116;-62
2023/01/29 08:45:35;;;;;;;6.78;3.92;;;26.00;62.90;;;;;;5064975;28;20313;-60
2023/01/29 08:48:02;;;;;;;10.68;4.07;;;26.10;62.80;;;;;;5065168;28;20028;-59
2023/01/29 08:50:33;;;;;;;6.25;3.58;;;26.10;62.70;;;;;;5064690;28;20044;-58
2023/01/29 08:53:02;;;;;;;6.57;3.40;;;26.10;62.50;;;;;;5064539;28;20052;-56
2023/01/29 08:55:29;;;;;;;5.00;3.70;;;26.10;62.40;;;;;;5064574;28;20029;-59
2023/01/29 08:57:58;;;;;;;5.57;3.70;;;26.10;62.50;;;;;;5065292;28;20025;-60
2023/01/29 09:00:25;;;;;;;8.82;3.60;;;26.00;62.30;;;;;;5064672;28;20209;-62
2023/01/29 09:02:52;;;;;;;6.93;3.53;;;26.00;62.40;;;;;;5064775;28;20063;-59
2023/01/29 09:05:18;;;;;;;7.57;3.25;;;26.00;62.30;;;;;;5064643;28;20059;-58
2023/01/29 09:07:45;;;;;;;5.10;3.78;;;26.10;62.40;;;;;;5064873;28;20227;-60
2023/01/29 09:10:12;;;;;;;8.10;3.65;;;26.00;62.10;;;;;;5064390;28;20044;-59
2023/01/29 09:12:38;;;;;;;6.07;3.90;;;26.00;62.00;;;;;;5064157;28;20025;-62
2023/01/29 09:15:05;;;;;;;7.05;4.05;;;26.10;61.90;;;;;;5064696;28;20028;-58
2023/01/29 09:17:32;;;;;;;4.53;3.17;;;26.00;61.70;;;;;;5064877;28;20017;-58
2023/01/29 09:19:59;;;;;;;8.13;3.83;;;26.00;61.80;;;;;;5064419;28;20032;-60
2023/01/29 09:22:25;;;;;;;6.05;3.10;;;26.00;61.70;;;;;;5064699;28;20024;-60
2023/01/29 09:24:52;;;;;;;6.60;3.65;;;26.00;61.80;;;;;;5064441;28;20032;-60
2023/01/29 09:27:18;;;;;;;7.20;3.95;;;26.00;62.10;;;;;;5064320;28;20016;-60
2023/01/29 09:29:45;;;;;;;5.60;4.00;;;26.00;62.30;;;;;;5064223;28;20032;-59
2023/01/29 09:32:12;;;;;;;7.38;3.72;;;26.00;62.60;;;;;;5064016;28;20100;-57
2023/01/29 09:34:38;;;;;;;5.93;3.75;;;26.00;62.90;;;;;;5064164;28;20024;-57
2023/01/29 09:37:05;;;;;;;6.32;4.13;;;26.00;62.90;;;;;;5064074;28;20033;-58
2023/01/29 09:39:32;;;;;;;5.03;4.00;;;26.00;62.70;;;;;;5063803;28;20052;-60
2023/01/29 09:42:08;;;;;;;5.97;3.70;;;26.00;62.70;;;;;;5063838;28;20052;-58
2023/01/29 09:44:50;;;;;;;7.18;3.85;;;25.90;62.70;;;;;;5063832;28;20052;-58
2023/01/29 09:47:18;;;;;;;6.03;3.40;;;25.90;62.90;;;;;;5064417;28;20441;-61
2023/01/29 09:49:54;;;;;;;6.57;3.80;;;25.90;63.10;;;;;;5063764;28;20029;-60
2023/01/29 09:52:25;;;;;;;6.57;3.90;;;25.90;63.10;;;;;;5063975;28;20362;-58
2023/01/29 09:55:23;;;;;;;5.32;3.72;;;25.90;63.00;;;;;;5063836;28;20037;-59
2023/01/29 09:58:12;;;;;;;7.70;3.40;;;25.80;62.90;;;;;;5064455;28;20020;-59
2023/01/29 10:01:23;;;;;;;6.55;3.83;;;25.80;62.90;;;;;;5054728;28;20049;-54
2023/01/29 10:04:23;;;;;;;4.70;3.80;;;25.80;63.00;;;;;;5060776;28;20036;-60
2023/01/29 10:06:49;;;;;;;4.72;3.60;;;25.80;63.20;;;;;;5063704;28;20017;-56
2023/01/29 10:09:31;;;;;;;7.43;4.13;;;25.80;63.40;;;;;;5063651;28;20037;-57
2023/01/29 10:12:26;;;;;;;7.43;4.57;;;25.80;63.80;;;;;;5063583;28;20021;-59
2023/01/29 10:15:29;;;;;;;10.85;4.63;;;25.80;64.10;;;;;;5035807;28;20060;-60
2023/01/29 10:18:21;;;;;;;8.18;4.47;;;25.80;64.50;;;;;;5064499;28;20013;-59
2023/01/29 10:21:06;;;;;;;9.88;4.57;;;25.70;64.90;;;;;;5063798;28;20041;-59
2023/01/29 10:23:53;;;;;;;8.38;4.45;;;25.70;65.30;;;;;;5063454;28;20036;-62
2023/01/29 10:26:26;;;;;;;7.95;4.65;;;25.70;65.50;;;;;;5063476;28;20313;-56
2023/01/29 10:28:56;;;;;;;9.23;4.88;;;25.70;65.60;;;;;;5063420;28;20343;-59
2023/01/29 10:31:37;;;;;;;10.68;4.57;;;25.70;65.60;;;;;;5063278;28;20385;-59
2023/01/29 10:34:03;;;;;;;11.82;5.20;;;25.70;65.80;;;;;;5063325;28;20202;-64
2023/01/29 10:36:37;;;;;;;11.73;4.75;;;25.70;65.90;;;;;;5063179;28;20040;-59
2023/01/29 10:39:04;;;;;;;12.57;4.68;;;25.70;65.90;;;;;;5063611;28;20017;-58
2023/01/29 10:41:54;;;;;;;9.90;4.68;;;25.70;65.90;;;;;;5063868;28;20052;-59
2023/01/29 10:44:33;;;;;;;9.32;4.25;;;25.60;65.80;;;;;;5063356;28;20107;-59
2023/01/29 10:47:25;;;;;;;9.82;4.30;;;25.70;66.00;;;;;;5063619;28;20029;-59
2023/01/29 10:49:54;;;;;;;12.10;4.37;;;25.60;66.10;;;;;;5063422;28;20024;-57
2023/01/29 10:52:55;;;;;;;9.77;4.20;;;25.60;66.20;;;;;;5063917;28;20282;-60
2023/01/29 10:55:36;;;;;;;14.88;4.40;;;25.60;66.20;;;;;;5066817;28;20021;-59
2023/01/29 10:58:27;;;;;;;13.95;5.00;;;25.60;66.40;;;;;;5067344;28;20021;-56
2023/01/29 11:00:53;;;;;;;19.67;4.70;;;25.60;66.40;;;;;;5067301;28;20028;-59
2023/01/29 11:03:30;;;;;;;13.27;4.60;;;25.60;66.40;;;;;;5066859;28;20060;-59
2023/01/29 11:06:10;;;;;;;9.88;4.70;;;25.60;66.40;;;;;;5066337;28;20017;-58
2023/01/29 11:08:48;;;;;;;12.50;4.32;;;25.60;66.50;;;;;;5066738;28;20070;-58
2023/01/29 11:11:20;;;;;;;13.63;4.63;;;25.60;66.50;;;;;;5066314;28;20017;-57
2023/01/29 11:14:09;;;;;;;13.63;4.55;;;25.60;66.50;;;;;;5066602;28;20324;-57
2023/01/29 11:16:45;;;;;;;10.20;4.10;;;25.60;66.50;;;;;;5066728;28;20143;-60
2023/01/29 11:19:12;;;;;;;21.10;5.30;;;25.60;66.40;;;;;;5066430;28;20043;-62
2023/01/29 11:21:56;;;;;;;15.45;4.53;;;25.60;66.50;;;;;;5066621;28;20017;-54
2023/01/29 11:24:24;;;;;;;16.88;4.40;;;25.50;66.20;;;;;;5066612;28;20176;-59
2023/01/29 11:26:53;;;;;;;11.60;4.70;;;25.50;66.60;;;;;;5066294;28;20029;-59
2023/01/29 11:29:40;;;;;;;30.85;5.68;;;25.50;66.40;;;;;;5066213;28;20080;-58
2023/01/29 11:32:20;;;;;;;25.75;4.95;;;25.60;66.60;;;;;;5065916;28;20028;-59
2023/01/29 11:34:57;;;;;;;28.02;5.47;;;25.60;66.60;;;;;;5066736;28;20029;-57
2023/01/29 11:37:41;;;;;;;22.58;5.35;;;25.50;66.60;;;;;;5066363;28;20228;-55
2023/01/29 11:40:27;;;;;;;20.70;5.28;;;25.50;66.70;;;;;;5066241;28;20037;-55
2023/01/29 11:42:54;;;;;;;12.52;4.88;;;25.50;67.00;;;;;;5055724;28;20228;-56
2023/01/29 11:45:31;;;;;;;30.75;6.50;;;25.50;67.20;;;;;;5066166;28;20340;-56
2023/01/29 11:47:58;;;;;;;27.75;6.00;;;25.50;67.80;;;;;;5066278;28;20047;-55
2023/01/29 11:50:31;;;;;;;25.25;5.45;;;25.50;68.00;;;;;;5065927;28;20329;-57
2023/01/29 11:53:02;;;;;;;26.27;6.05;;;25.50;67.90;;;;;;5066223;28;20021;-58
2023/01/29 11:55:34;;;;;;;33.78;6.78;;;25.50;68.00;;;;;;5065636;28;20060;-55
2023/01/29 11:58:01;;;;;;;;;;;25.60;68.20;;;;;;5066474;28;20025;-54
2023/01/29 12:00:31;;;;;;;39.58;6.45;;;25.60;68.30;;;;;;5065618;28;20255;-55
2023/01/29 12:03:00;;;;;;;30.17;6.78;;;25.60;68.50;;;;;;5084351;28;20032;-61
2023/01/29 12:05:27;;;;;;;60.00;8.13;;;25.60;68.70;;;;;;5086321;28;20024;-56
2023/01/29 12:07:58;;;;;;;83.10;9.15;;;25.60;68.70;;;;;;5086503;28;20025;-57
2023/01/29 12:10:34;;;;;;;45.10;9.13;;;25.70;68.80;;;;;;5085352;28;20058;-55
2023/01/29 12:13:27;;;;;;;34.92;8.75;;;25.70;68.80;;;;;;5084624;28;20039;-55
2023/01/29 12:16:21;;;;;;;35.80;9.23;;;25.70;69.30;;;;;;5084345;28;20020;-55
2023/01/29 12:19:09;;;;;;;22.55;8.10;;;25.70;68.90;;;;;;5085668;28;20029;-55
2023/01/29 12:21:44;;;;;;;25.35;7.07;;;25.70;68.80;;;;;;5085698;28;20054;-57
2023/01/29 12:24:33;;;;;;;30.83;7.03;;;25.80;68.70;;;;;;5085516;28;20078;-57
2023/01/29 12:27:09;;;;;;;75.20;9.88;;;25.80;68.90;;;;;;5085749;28;20025;-57
2023/01/29 12:30:10;;;;;;;35.22;6.68;;;25.80;68.90;;;;;;5085321;28;20016;-56
2023/01/29 12:32:59;;;;;;;26.30;5.95;;;25.90;68.90;;;;;;5084152;28;20043;-56
2023/01/29 12:35:32;;;;;;;20.75;5.60;;;25.90;69.00;;;;;;5085366;28;20020;-56
2023/01/29 12:38:19;;;;;;;20.48;6.47;;;26.00;69.20;;;;;;5085917;28;20177;-55
2023/01/29 12:40:49;;;;;;;15.57;5.25;;;26.00;69.30;;;;;;5085447;28;20040;-57
2023/01/29 12:43:26;;;;;;;18.95;5.22;;;26.00;69.20;;;;;;5085358;28;20115;-57
2023/01/29 12:45:54;;;;;;;20.20;5.72;;;26.10;69.30;;;;;;5085466;28;20032;-57
2023/01/29 12:48:34;;;;;;;14.80;5.57;;;26.10;69.40;;;;;;5086064;28;20028;-56
2023/01/29 12:51:19;;;;;;;23.00;5.15;;;26.10;69.60;;;;;;5084762;28;20029;-57
2023/01/29 12:54:07;;;;;;;17.98;4.97;;;26.20;69.30;;;;;;5085014;28;20146;-55
2023/01/29 12:56:52;;;;;;;18.70;4.90;;;26.20;69.00;;;;;;5084913;28;20039;-58
2023/01/29 12:59:24;;;;;;;12.38;4.57;;;26.30;69.10;;;;;;5084882;28;20201;-56
2023/01/29 13:02:04;;;;;;;21.27;5.00;;;26.30;68.60;;;;;;5085348;28;20034;-57
2023/01/29 13:04:44;;;;;;;9.95;4.68;;;26.30;68.60;;;;;;5084941;28;20044;-57
2023/01/29 13:07:17;;;;;;;15.98;4.28;;;26.30;67.70;;;;;;5085058;28;20122;-62
2023/01/29 13:09:50;;;;;;;14.73;4.45;;;26.40;67.60;;;;;;5084917;28;20212;-55
2023/01/29 13:12:19;;;;;;;11.73;4.35;;;26.40;67.60;;;;;;5084984;28;20334;-58
2023/01/29 13:15:04;;;;;;;12.18;4.15;;;26.40;66.90;;;;;;5084166;28;20063;-58
2023/01/29 13:17:41;;;;;;;11.05;4.25;;;26.40;66.80;;;;;;5085168;28;20028;-58
2023/01/29 13:20:16;;;;;;;7.38;4.00;;;26.40;66.60;;;;;;5084872;28;20032;-55
2023/01/29 13:22:45;;;;;;;10.75;3.78;;;26.50;65.90;;;;;;5085333;28;20195;-57
2023/01/29 13:25:18;;;;;;;11.85;3.83;;;26.50;66.00;;;;;;5084786;28;20091;-57
2023/01/29 13:27:46;;;;;;;8.82;3.90;;;26.50;65.90;;;;;;5084675;28;20095;-55
2023/01/29 13:30:31;;;;;;;9.75;3.72;;;26.50;65.20;;;;;;5084942;28;20039;-55
2023/01/29 13:33:09;;;;;;;10.70;3.75;;;26.60;65.20;;;;;;5084911;28;20025;-56
2023/01/29 13:35:41;;;;;;;7.10;3.60;;;26.60;65.00;;;;;;5084663;28;20036;-57
2023/01/29 13:38:31;;;;;;;9.30;3.50;;;26.60;65.00;;;;;;5084616;28;20017;-59
2023/01/29 13:41:07;;;;;;;8.35;3.35;;;26.60;64.80;;;;;;5084366;28;20036;-54
2023/01/29 13:43:38;;;;;;;4.85;3.60;;;26.60;64.90;;;;;;5084139;28;20107;-55
2023/01/29 13:46:20;;;;;;;6.38;3.35;;;26.60;64.70;;;;;;5084752;28;20052;-55
2023/01/29 13:48:49;;;;;;;8.25;3.30;;;26.70;64.70;;;;;;5084484;28;20043;-57